sensor_id;sensor_type;location;lat;lon;timestamp;pressure;altitude;pressure_sealevel;temperature;humidity
28079;BME280;15388;42.238;24.684;2023-09-18T00:00:43;99953.31;;;21.46;96.16
28079;BME280;15388;42.238;24.684;2023-09-18T00:03:09;99954.59;;;21.50;95.19
28079;BME280;15388;42.238;24.684;2023-09-18T00:05:35;99953.31;;;21.46;95.62
28079;BME280;15388;42.238;24.684;2023-09-18T00:08:00;99952.28;;;21.47;95.63
28079;BME280;15388;42.238;24.684;2023-09-18T00:10:28;99956.66;;;21.48;94.98
28079;BME280;15388;42.238;24.684;2023-09-18T00:12:56;99954.97;;;21.47;95.51
28079;BME280;15388;42.238;24.684;2023-09-18T00:15:21;99947.13;;;21.52;94.94
28079;BME280;15388;42.238;24.684;2023-09-18T00:17:47;99948.97;;;21.51;95.00
28079;BME280;15388;42.238;24.684;2023-09-18T00:20:12;99949.63;;;21.54;95.03
28079;BME280;15388;42.238;24.684;2023-09-18T00:22:39;99943.38;;;21.53;94.57
28079;BME280;15388;42.238;24.684;2023-09-18T00:25:04;99947.13;;;21.59;94.04
28079;BME280;15388;42.238;24.684;2023-09-18T00:27:30;99953.19;;;21.61;93.12
28079;BME280;15388;42.238;24.684;2023-09-18T00:29:56;99953.41;;;21.59;93.14
28079;BME280;15388;42.238;24.684;2023-09-18T00:32:21;99949.66;;;21.60;93.04
28079;BME280;15388;42.238;24.684;2023-09-18T00:34:46;99942.56;;;21.59;93.21
28079;BME280;15388;42.238;24.684;2023-09-18T00:37:12;99939.22;;;21.57;93.70
28079;BME280;15388;42.238;24.684;2023-09-18T00:39:38;99945.09;;;21.61;93.05
28079;BME280;15388;42.238;24.684;2023-09-18T00:42:04;99944.22;;;21.60;92.84
28079;BME280;15388;42.238;24.684;2023-09-18T00:44:29;99946.53;;;21.63;92.98
28079;BME280;15388;42.238;24.684;2023-09-18T00:46:56;99947.16;;;21.66;92.74
28079;BME280;15388;42.238;24.684;2023-09-18T00:49:22;99948.84;;;21.67;92.90
28079;BME280;15388;42.238;24.684;2023-09-18T00:51:49;99941.75;;;21.66;92.57
28079;BME280;15388;42.238;24.684;2023-09-18T00:54:17;99945.91;;;21.61;92.67
28079;BME280;15388;42.238;24.684;2023-09-18T00:56:46;99946.16;;;21.67;92.88
28079;BME280;15388;42.238;24.684;2023-09-18T00:59:14;99943.44;;;21.67;92.10
28079;BME280;15388;42.238;24.684;2023-09-18T01:01:40;99929.66;;;21.61;92.46
28079;BME280;15388;42.238;24.684;2023-09-18T01:04:07;99933.41;;;21.60;92.68
28079;BME280;15388;42.238;24.684;2023-09-18T01:06:33;99937.56;;;21.56;92.85
28079;BME280;15388;42.238;24.684;2023-09-18T01:08:58;99940.41;;;21.48;92.86
28079;BME280;15388;42.238;24.684;2023-09-18T01:11:38;99942.72;;;21.51;92.99
28079;BME280;15388;42.238;24.684;2023-09-18T01:14:12;99936.91;;;21.54;93.58
28079;BME280;15388;42.238;24.684;2023-09-18T01:16:48;99938.56;;;21.55;93.15
28079;BME280;15388;42.238;24.684;2023-09-18T01:19:16;99942.31;;;21.54;93.31
28079;BME280;15388;42.238;24.684;2023-09-18T01:21:41;99950.84;;;21.51;93.13
28079;BME280;15388;42.238;24.684;2023-09-18T01:24:07;99946.66;;;21.48;93.24
28079;BME280;15388;42.238;24.684;2023-09-18T01:26:32;99949.56;;;21.47;93.01
28079;BME280;15388;42.238;24.684;2023-09-18T01:28:58;99943.53;;;21.45;93.58
28079;BME280;15388;42.238;24.684;2023-09-18T01:31:23;99947.06;;;21.45;93.94
28079;BME280;15388;42.238;24.684;2023-09-18T01:33:50;99945.38;;;21.44;94.26
28079;BME280;15388;42.238;24.684;2023-09-18T01:36:16;99938.72;;;21.47;93.95
28079;BME280;15388;42.238;24.684;2023-09-18T01:38:44;99946.84;;;21.47;93.92
28079;BME280;15388;42.238;24.684;2023-09-18T01:41:09;99937.91;;;21.46;93.99
28079;BME280;15388;42.238;24.684;2023-09-18T01:43:35;99942.09;;;21.49;93.93
28079;BME280;15388;42.238;24.684;2023-09-18T01:46:01;99938.34;;;21.50;93.79
28079;BME280;15388;42.238;24.684;2023-09-18T01:48:26;99938.34;;;21.50;94.28
28079;BME280;15388;42.238;24.684;2023-09-18T01:50:52;99940.00;;;21.51;94.05
28079;BME280;15388;42.238;24.684;2023-09-18T01:53:17;99945.03;;;21.54;93.92
28079;BME280;15388;42.238;24.684;2023-09-18T01:55:43;99941.69;;;21.52;93.52
28079;BME280;15388;42.238;24.684;2023-09-18T01:58:09;99942.72;;;21.51;94.43
28079;BME280;15388;42.238;24.684;2023-09-18T02:00:34;99936.69;;;21.49;94.12
28079;BME280;15388;42.238;24.684;2023-09-18T02:03:00;99944.22;;;21.54;94.52
28079;BME280;15388;42.238;24.684;2023-09-18T02:05:25;99945.03;;;21.54;94.48
28079;BME280;15388;42.238;24.684;2023-09-18T02:07:52;99944.63;;;21.57;94.34
28079;BME280;15388;42.238;24.684;2023-09-18T02:10:17;99943.78;;;21.57;94.14
28079;BME280;15388;42.238;24.684;2023-09-18T02:12:43;99945.03;;;21.54;94.48
28079;BME280;15388;42.238;24.684;2023-09-18T02:15:08;99937.56;;;21.56;94.72
28079;BME280;15388;42.238;24.684;2023-09-18T02:17:36;99941.72;;;21.59;95.09
28079;BME280;15388;42.238;24.684;2023-09-18T02:20:03;99944.22;;;21.60;94.69
28079;BME280;15388;42.238;24.684;2023-09-18T02:22:32;99943.59;;;21.58;94.82
28079;BME280;15388;42.238;24.684;2023-09-18T02:24:57;99945.69;;;21.56;94.46
28079;BME280;15388;42.238;24.684;2023-09-18T02:27:23;99939.59;;;21.54;94.36
28079;BME280;15388;42.238;24.684;2023-09-18T02:29:49;99948.31;;;21.49;95.50
28079;BME280;15388;42.238;24.684;2023-09-18T02:32:15;99942.50;;;21.46;95.26
28079;BME280;15388;42.238;24.684;2023-09-18T02:34:41;99940.81;;;21.45;95.63
28079;BME280;15388;42.238;24.684;2023-09-18T02:37:06;99944.31;;;21.38;96.04
28079;BME280;15388;42.238;24.684;2023-09-18T02:39:32;99948.84;;;21.31;96.69
28079;BME280;15388;42.238;24.684;2023-09-18T02:41:58;99944.06;;;21.33;96.90
28079;BME280;15388;42.238;24.684;2023-09-18T02:44:23;99946.34;;;21.30;97.31
28079;BME280;15388;42.238;24.684;2023-09-18T02:46:49;99944.88;;;21.27;97.72
28079;BME280;15388;42.238;24.684;2023-09-18T02:49:14;99948.19;;;21.29;97.41
28079;BME280;15388;42.238;24.684;2023-09-18T02:51:40;99952.41;;;21.32;97.06
28079;BME280;15388;42.238;24.684;2023-09-18T02:54:05;99952.19;;;21.33;97.21
28079;BME280;15388;42.238;24.684;2023-09-18T02:56:31;99954.06;;;21.33;97.16
28079;BME280;15388;42.238;24.684;2023-09-18T02:58:56;99957.41;;;21.35;96.81
28079;BME280;15388;42.238;24.684;2023-09-18T03:01:22;99946.56;;;21.35;96.37
28079;BME280;15388;42.238;24.684;2023-09-18T03:03:47;99961.34;;;21.32;96.92
28079;BME280;15388;42.238;24.684;2023-09-18T03:06:13;99967.41;;;21.34;97.25
28079;BME280;15388;42.238;24.684;2023-09-18T03:08:38;99968.03;;;21.36;97.04
28079;BME280;15388;42.238;24.684;2023-09-18T03:11:10;99961.59;;;21.37;96.82
28079;BME280;15388;42.238;24.684;2023-09-18T03:13:36;99963.00;;;21.33;97.29
28079;BME280;15388;42.238;24.684;2023-09-18T03:16:01;99959.09;;;21.36;96.84
28079;BME280;15388;42.238;24.684;2023-09-18T03:18:27;99958.44;;;21.34;97.49
28079;BME280;15388;42.238;24.684;2023-09-18T03:20:54;99963.22;;;21.32;98.08
28079;BME280;15388;42.238;24.684;2023-09-18T03:23:19;99959.03;;;21.29;97.85
28079;BME280;15388;42.238;24.684;2023-09-18T03:25:45;99964.00;;;21.25;97.51
28079;BME280;15388;42.238;24.684;2023-09-18T03:28:10;99959.84;;;21.23;97.34
28079;BME280;15388;42.238;24.684;2023-09-18T03:30:36;99957.31;;;21.21;98.61
28079;BME280;15388;42.238;24.684;2023-09-18T03:33:02;99960.41;;;21.18;98.67
28079;BME280;15388;42.238;24.684;2023-09-18T03:35:28;99958.53;;;21.19;98.79
28079;BME280;15388;42.238;24.684;2023-09-18T03:37:54;99964.97;;;21.18;99.09
28079;BME280;15388;42.238;24.684;2023-09-18T03:40:21;99969.34;;;21.19;99.71
28079;BME280;15388;42.238;24.684;2023-09-18T03:42:47;99964.78;;;21.19;100.00
28079;BME280;15388;42.238;24.684;2023-09-18T03:45:13;99965.38;;;21.15;100.00
28079;BME280;15388;42.238;24.684;2023-09-18T03:47:39;99961.16;;;21.05;100.00
28079;BME280;15388;42.238;24.684;2023-09-18T03:50:09;99967.53;;;20.97;100.00
28079;BME280;15388;42.238;24.684;2023-09-18T03:52:36;99964.03;;;20.82;100.00
28079;BME280;15388;42.238;24.684;2023-09-18T03:55:02;99965.66;;;20.76;100.00
28079;BME280;15388;42.238;24.684;2023-09-18T03:57:27;99973.13;;;20.74;100.00
28079;BME280;15388;42.238;24.684;2023-09-18T03:59:53;99968.34;;;20.76;100.00
28079;BME280;15388;42.238;24.684;2023-09-18T04:02:20;99967.31;;;20.77;100.00
28079;BME280;15388;42.238;24.684;2023-09-18T04:04:45;99962.34;;;20.81;100.00
28079;BME280;15388;42.238;24.684;2023-09-18T04:07:11;99966.56;;;20.83;100.00
28079;BME280;15388;42.238;24.684;2023-09-18T04:09:37;99961.97;;;20.84;100.00
28079;BME280;15388;42.238;24.684;2023-09-18T04:12:04;99964.09;;;20.88;100.00
28079;BME280;15388;42.238;24.684;2023-09-18T04:14:32;99963.75;;;20.92;100.00
28079;BME280;15388;42.238;24.684;2023-09-18T04:16:58;99963.34;;;20.95;100.00
28079;BME280;15388;42.238;24.684;2023-09-18T04:19:25;99970.44;;;20.96;100.00
28079;BME280;15388;42.238;24.684;2023-09-18T04:21:51;99969.16;;;20.92;100.00
28079;BME280;15388;42.238;24.684;2023-09-18T04:24:16;99963.75;;;20.92;100.00
28079;BME280;15388;42.238;24.684;2023-09-18T04:26:42;99957.56;;;20.98;100.00
28079;BME280;15388;42.238;24.684;2023-09-18T04:29:08;99965.28;;;21.01;100.00
28079;BME280;15388;42.238;24.684;2023-09-18T04:31:34;99960.09;;;21.06;100.00
28079;BME280;15388;42.238;24.684;2023-09-18T04:33:59;99965.13;;;21.09;100.00
28079;BME280;15388;42.238;24.684;2023-09-18T04:36:25;99968.47;;;21.11;100.00
28079;BME280;15388;42.238;24.684;2023-09-18T04:38:51;99965.19;;;21.16;100.00
28079;BME280;15388;42.238;24.684;2023-09-18T04:41:17;99961.22;;;21.19;100.00
28079;BME280;15388;42.238;24.684;2023-09-18T04:43:42;99959.84;;;21.23;100.00
28079;BME280;15388;42.238;24.684;2023-09-18T04:46:08;99957.75;;;21.25;100.00
28079;BME280;15388;42.238;24.684;2023-09-18T04:48:33;99972.56;;;21.29;100.00
28079;BME280;15388;42.238;24.684;2023-09-18T04:50:59;99971.34;;;21.32;100.00
28079;BME280;15388;42.238;24.684;2023-09-18T04:53:28;99972.81;;;21.34;100.00
28079;BME280;15388;42.238;24.684;2023-09-18T04:55:54;99965.09;;;21.31;100.00
28079;BME280;15388;42.238;24.684;2023-09-18T04:58:20;99974.47;;;21.35;100.00
28079;BME280;15388;42.238;24.684;2023-09-18T05:00:47;99972.44;;;21.37;100.00
28079;BME280;15388;42.238;24.684;2023-09-18T05:03:12;99978.06;;;21.43;100.00
28079;BME280;15388;42.238;24.684;2023-09-18T05:05:38;99973.50;;;21.43;99.71
28079;BME280;15388;42.238;24.684;2023-09-18T05:08:06;99968.69;;;21.38;99.71
28079;BME280;15388;42.238;24.684;2023-09-18T05:10:35;99974.09;;;21.38;99.98
28079;BME280;15388;42.238;24.684;2023-09-18T05:13:01;99973.03;;;21.40;99.06
28079;BME280;15388;42.238;24.684;2023-09-18T05:15:28;99957.47;;;21.42;99.45
28079;BME280;15388;42.238;24.684;2023-09-18T05:17:57;99968.19;;;21.28;99.29
28079;BME280;15388;42.238;24.684;2023-09-18T05:20:28;99972.00;;;21.41;98.04
28079;BME280;15388;42.238;24.684;2023-09-18T05:22:55;99979.13;;;21.42;98.85
28079;BME280;15388;42.238;24.684;2023-09-18T05:25:22;99967.63;;;21.40;98.06
28079;BME280;15388;42.238;24.684;2023-09-18T05:27:49;99965.47;;;21.28;98.71
28079;BME280;15388;42.238;24.684;2023-09-18T05:30:25;99968.56;;;21.25;99.08
28079;BME280;15388;42.238;24.684;2023-09-18T05:32:54;99964.41;;;21.22;100.00
28079;BME280;15388;42.238;24.684;2023-09-18T05:35:19;99962.78;;;21.28;99.87
28079;BME280;15388;42.238;24.684;2023-09-18T05:37:46;99964.81;;;21.26;100.00
28079;BME280;15388;42.238;24.684;2023-09-18T05:40:13;99965.50;;;21.35;100.00
28079;BME280;15388;42.238;24.684;2023-09-18T05:42:41;99963.44;;;21.30;99.58
28079;BME280;15388;42.238;24.684;2023-09-18T05:45:14;99959.72;;;21.38;98.75
28079;BME280;15388;42.238;24.684;2023-09-18T05:47:40;99960.09;;;21.35;98.21
28079;BME280;15388;42.238;24.684;2023-09-18T05:50:07;99970.34;;;21.40;98.15
28079;BME280;15388;42.238;24.684;2023-09-18T05:52:34;99971.13;;;21.33;97.61
28079;BME280;15388;42.238;24.684;2023-09-18T05:55:01;99982.44;;;21.44;96.47
28079;BME280;15388;42.238;24.684;2023-09-18T05:57:27;99978.31;;;21.48;96.49
28079;BME280;15388;42.238;24.684;2023-09-18T05:59:56;99983.31;;;21.51;97.43
28079;BME280;15388;42.238;24.684;2023-09-18T06:02:22;99981.00;;;21.48;98.56
28079;BME280;15388;42.238;24.684;2023-09-18T06:04:48;99977.91;;;21.51;98.68
28079;BME280;15388;42.238;24.684;2023-09-18T06:07:14;99975.84;;;21.53;97.93
28079;BME280;15388;42.238;24.684;2023-09-18T06:09:40;99975.47;;;21.56;96.84
28079;BME280;15388;42.238;24.684;2023-09-18T06:12:06;99979.47;;;21.67;96.71
28079;BME280;15388;42.238;24.684;2023-09-18T06:14:32;99989.75;;;21.79;95.57
28079;BME280;15388;42.238;24.684;2023-09-18T06:17:00;99991.94;;;21.90;94.63
28079;BME280;15388;42.238;24.684;2023-09-18T06:19:26;99982.97;;;21.89;94.59
28079;BME280;15388;42.238;24.684;2023-09-18T06:21:51;99991.34;;;22.01;95.09
28079;BME280;15388;42.238;24.684;2023-09-18T06:24:17;99990.31;;;22.09;93.04
28079;BME280;15388;42.238;24.684;2023-09-18T06:26:42;99991.84;;;22.19;91.04
28079;BME280;15388;42.238;24.684;2023-09-18T06:29:08;99974.72;;;22.11;89.89
28079;BME280;15388;42.238;24.684;2023-09-18T06:31:35;99991.44;;;22.22;89.87
28079;BME280;15388;42.238;24.684;2023-09-18T06:34:00;99989.78;;;22.34;89.25
28079;BME280;15388;42.238;24.684;2023-09-18T06:36:26;99992.53;;;22.41;89.40
28079;BME280;15388;42.238;24.684;2023-09-18T06:38:51;99995.47;;;22.53;88.75
28079;BME280;15388;42.238;24.684;2023-09-18T06:41:16;99995.75;;;22.58;85.54
28079;BME280;15388;42.238;24.684;2023-09-18T06:43:42;99997.66;;;22.64;84.67
28079;BME280;15388;42.238;24.684;2023-09-18T06:46:07;99996.78;;;22.71;85.66
28079;BME280;15388;42.238;24.684;2023-09-18T06:48:33;99996.63;;;22.79;84.21
28079;BME280;15388;42.238;24.684;2023-09-18T06:50:59;99999.31;;;22.93;83.91
28079;BME280;15388;42.238;24.684;2023-09-18T06:53:27;99996.22;;;23.02;81.66
28079;BME280;15388;42.238;24.684;2023-09-18T06:55:53;99999.16;;;23.01;80.69
28079;BME280;15388;42.238;24.684;2023-09-18T06:58:19;99994.31;;;23.03;82.65
28079;BME280;15388;42.238;24.684;2023-09-18T07:00:44;99998.53;;;23.12;82.43
28079;BME280;15388;42.238;24.684;2023-09-18T07:03:10;99991.41;;;23.18;81.48
28079;BME280;15388;42.238;24.684;2023-09-18T07:05:37;99991.63;;;23.16;81.48
28079;BME280;15388;42.238;24.684;2023-09-18T07:08:02;99989.31;;;23.20;81.17
28079;BME280;15388;42.238;24.684;2023-09-18T07:10:30;99989.13;;;23.15;81.26
28079;BME280;15388;42.238;24.684;2023-09-18T07:12:56;99994.16;;;23.11;80.49
28079;BME280;15388;42.238;24.684;2023-09-18T07:15:21;99987.25;;;23.15;80.16
28079;BME280;15388;42.238;24.684;2023-09-18T07:17:47;99997.66;;;23.12;80.95
28079;BME280;15388;42.238;24.684;2023-09-18T07:20:13;100000.81;;;23.15;80.14
28079;BME280;15388;42.238;24.684;2023-09-18T07:22:45;99997.69;;;23.19;81.20
28079;BME280;15388;42.238;24.684;2023-09-18T07:25:12;99989.31;;;23.27;81.18
28079;BME280;15388;42.238;24.684;2023-09-18T07:27:37;99998.53;;;23.12;79.54
28079;BME280;15388;42.238;24.684;2023-09-18T07:30:05;99993.91;;;22.79;81.38
28079;BME280;15388;42.238;24.684;2023-09-18T07:32:31;99999.97;;;22.95;81.84
28079;BME280;15388;42.238;24.684;2023-09-18T07:34:57;99991.19;;;23.06;80.78
28079;BME280;15388;42.238;24.684;2023-09-18T07:37:23;100003.94;;;23.26;80.21
28079;BME280;15388;42.238;24.684;2023-09-18T07:39:49;99994.75;;;23.47;78.61
28079;BME280;15388;42.238;24.684;2023-09-18T07:42:14;99999.34;;;23.60;77.53
28079;BME280;15388;42.238;24.684;2023-09-18T07:44:40;99998.88;;;23.70;75.64
28079;BME280;15388;42.238;24.684;2023-09-18T07:47:05;99997.84;;;23.78;75.09
28079;BME280;15388;42.238;24.684;2023-09-18T07:49:31;99996.97;;;23.91;73.88
28079;BME280;15388;42.238;24.684;2023-09-18T07:51:56;100004.66;;;24.08;72.86
28079;BME280;15388;42.238;24.684;2023-09-18T07:54:22;99996.91;;;24.04;69.93
28079;BME280;15388;42.238;24.684;2023-09-18T07:56:47;99999.22;;;24.01;68.81
28079;BME280;15388;42.238;24.684;2023-09-18T07:59:13;99991.72;;;23.89;68.53
28079;BME280;15388;42.238;24.684;2023-09-18T08:01:40;99991.91;;;24.01;69.19
28079;BME280;15388;42.238;24.684;2023-09-18T08:04:06;99988.28;;;24.21;70.25
28079;BME280;15388;42.238;24.684;2023-09-18T08:06:31;99991.16;;;24.33;68.85
28079;BME280;15388;42.238;24.684;2023-09-18T08:08:57;99988.09;;;24.62;67.90
28079;BME280;15388;42.238;24.684;2023-09-18T08:11:23;99989.88;;;24.75;65.45
28079;BME280;15388;42.238;24.684;2023-09-18T08:13:48;99990.59;;;24.96;63.91
28079;BME280;15388;42.238;24.684;2023-09-18T08:16:14;99986.88;;;25.15;63.85
28079;BME280;15388;42.238;24.684;2023-09-18T08:18:39;99981.63;;;25.39;62.39
28079;BME280;15388;42.238;24.684;2023-09-18T08:21:07;99976.38;;;25.63;61.43
28079;BME280;15388;42.238;24.684;2023-09-18T08:23:35;99978.81;;;25.72;59.08
28079;BME280;15388;42.238;24.684;2023-09-18T08:26:01;99975.84;;;25.73;58.88
28079;BME280;15388;42.238;24.684;2023-09-18T08:28:27;99975.78;;;25.80;58.46
28079;BME280;15388;42.238;24.684;2023-09-18T08:30:53;99970.63;;;25.90;59.73
28079;BME280;15388;42.238;24.684;2023-09-18T08:33:20;99972.59;;;26.02;59.66
28079;BME280;15388;42.238;24.684;2023-09-18T08:35:45;99968.63;;;25.98;59.49
28079;BME280;15388;42.238;24.684;2023-09-18T08:38:13;99962.69;;;25.89;58.68
28079;BME280;15388;42.238;24.684;2023-09-18T08:40:41;99969.59;;;25.73;57.35
28079;BME280;15388;42.238;24.684;2023-09-18T08:43:08;99963.63;;;25.38;59.09
28079;BME280;15388;42.238;24.684;2023-09-18T08:45:43;99955.91;;;25.54;60.31
28079;BME280;15388;42.238;24.684;2023-09-18T08:48:11;99964.28;;;25.59;58.20
28079;BME280;15388;42.238;24.684;2023-09-18T08:50:37;99960.53;;;25.53;59.93
28079;BME280;15388;42.238;24.684;2023-09-18T08:53:04;99958.59;;;25.79;60.07
28079;BME280;15388;42.238;24.684;2023-09-18T08:55:30;99955.50;;;25.94;59.85
28079;BME280;15388;42.238;24.684;2023-09-18T08:57:57;99967.22;;;26.26;58.51
28079;BME280;15388;42.238;24.684;2023-09-18T09:00:24;99968.28;;;26.43;57.86
28079;BME280;15388;42.238;24.684;2023-09-18T09:02:50;99963.84;;;26.61;56.47
28079;BME280;15388;42.238;24.684;2023-09-18T09:05:17;99950.69;;;26.70;56.65
28079;BME280;15388;42.238;24.684;2023-09-18T09:07:43;99948.09;;;26.87;55.62
28079;BME280;15388;42.238;24.684;2023-09-18T09:10:08;99938.13;;;26.69;54.36
28079;BME280;15388;42.238;24.684;2023-09-18T09:12:53;99935.75;;;26.84;55.36
28079;BME280;15388;42.238;24.684;2023-09-18T09:15:27;99946.38;;;27.05;53.88
28079;BME280;15388;42.238;24.684;2023-09-18T09:18:04;99936.53;;;27.04;52.39
28079;BME280;15388;42.238;24.684;2023-09-18T09:20:31;99937.56;;;27.03;53.25
28079;BME280;15388;42.238;24.684;2023-09-18T09:23:03;99951.47;;;27.13;53.02
28079;BME280;15388;42.238;24.684;2023-09-18T09:25:31;99937.69;;;27.08;53.15
28079;BME280;15388;42.238;24.684;2023-09-18T09:28:06;99941.97;;;27.28;53.50
28079;BME280;15388;42.238;24.684;2023-09-18T09:30:33;99938.66;;;27.26;53.12
28079;BME280;15388;42.238;24.684;2023-09-18T09:32:59;99942.09;;;27.33;51.79
28079;BME280;15388;42.238;24.684;2023-09-18T09:35:29;99943.72;;;27.58;54.24
28079;BME280;15388;42.238;24.684;2023-09-18T09:38:00;99944.06;;;27.62;50.35
28079;BME280;15388;42.238;24.684;2023-09-18T09:40:27;99941.97;;;27.64;51.13
28079;BME280;15388;42.238;24.684;2023-09-18T09:42:55;99933.22;;;27.79;51.89
28079;BME280;15388;42.238;24.684;2023-09-18T09:45:27;99937.25;;;27.88;49.25
28079;BME280;15388;42.238;24.684;2023-09-18T09:47:54;99937.50;;;28.16;50.31
28079;BME280;15388;42.238;24.684;2023-09-18T09:50:20;99926.63;;;28.33;48.84
28079;BME280;15388;42.238;24.684;2023-09-18T09:52:49;99915.88;;;28.43;48.77
28079;BME280;15388;42.238;24.684;2023-09-18T09:55:22;99923.44;;;28.70;46.06
28079;BME280;15388;42.238;24.684;2023-09-18T09:57:53;99920.94;;;28.86;46.25
28079;BME280;15388;42.238;24.684;2023-09-18T10:00:24;99912.25;;;29.06;45.83
28079;BME280;15388;42.238;24.684;2023-09-18T10:03:06;99912.28;;;29.29;45.70
28079;BME280;15388;42.238;24.684;2023-09-18T10:05:38;99897.06;;;29.38;45.06
28079;BME280;15388;42.238;24.684;2023-09-18T10:08:08;99904.53;;;29.43;44.14
28079;BME280;15388;42.238;24.684;2023-09-18T10:10:46;99905.72;;;29.69;43.70
28079;BME280;15388;42.238;24.684;2023-09-18T10:13:20;99904.06;;;29.68;42.41
28079;BME280;15388;42.238;24.684;2023-09-18T10:15:50;99899.38;;;29.07;43.97
28079;BME280;15388;42.238;24.684;2023-09-18T10:20:51;99897.31;;;29.14;43.42
28079;BME280;15388;42.238;24.684;2023-09-18T10:23:31;99897.44;;;29.24;44.28
28079;BME280;15388;42.238;24.684;2023-09-18T10:26:00;99895.03;;;29.50;43.28
28079;BME280;15388;42.238;24.684;2023-09-18T10:28:29;99880.34;;;29.57;42.45
28079;BME280;15388;42.238;24.684;2023-09-18T10:30:57;99883.19;;;29.67;42.10
28079;BME280;15388;42.238;24.684;2023-09-18T10:33:24;99883.31;;;29.78;41.84
28079;BME280;15388;42.238;24.684;2023-09-18T10:35:52;99874.53;;;29.75;41.41
28079;BME280;15388;42.238;24.684;2023-09-18T10:38:18;99876.28;;;29.87;41.36
28079;BME280;15388;42.238;24.684;2023-09-18T10:40:46;99870.44;;;30.06;39.82
28079;BME280;15388;42.238;24.684;2023-09-18T10:43:15;99863.50;;;30.25;39.14
28079;BME280;15388;42.238;24.684;2023-09-18T10:45:41;99857.56;;;30.06;38.96
28079;BME280;15388;42.238;24.684;2023-09-18T10:48:09;99863.59;;;29.81;39.81
28079;BME280;15388;42.238;24.684;2023-09-18T10:50:35;99857.56;;;29.79;40.98
28079;BME280;15388;42.238;24.684;2023-09-18T10:53:02;99848.03;;;29.86;40.84
28079;BME280;15388;42.238;24.684;2023-09-18T10:55:27;99843.50;;;29.97;42.07
28079;BME280;15388;42.238;24.684;2023-09-18T10:57:57;99838.56;;;29.99;40.33
28079;BME280;15388;42.238;24.684;2023-09-18T11:00:29;99846.69;;;29.89;39.67
28079;BME280;15388;42.238;24.684;2023-09-18T11:03:13;99848.97;;;29.97;40.26
28079;BME280;15388;42.238;24.684;2023-09-18T11:05:39;99853.38;;;30.26;39.85
28079;BME280;15388;42.238;24.684;2023-09-18T11:08:24;99833.81;;;30.50;39.66
28079;BME280;15388;42.238;24.684;2023-09-18T11:11:02;99847.88;;;30.59;38.72
28079;BME280;15388;42.238;24.684;2023-09-18T11:13:36;99834.16;;;30.26;38.06
28079;BME280;15388;42.238;24.684;2023-09-18T11:19:13;99835.81;;;29.99;39.29
28079;BME280;15388;42.238;24.684;2023-09-18T11:21:41;99832.06;;;30.11;39.84
28079;BME280;15388;42.238;24.684;2023-09-18T11:24:21;99833.94;;;30.33;38.82
28079;BME280;15388;42.238;24.684;2023-09-18T11:26:49;99829.00;;;30.68;38.58
28079;BME280;15388;42.238;24.684;2023-09-18T11:29:22;99829.63;;;30.80;37.74
28079;BME280;15388;42.238;24.684;2023-09-18T11:31:53;99818.97;;;30.89;37.03
28079;BME280;15388;42.238;24.684;2023-09-18T11:34:23;99832.66;;;30.79;38.35
28079;BME280;15388;42.238;24.684;2023-09-18T11:36:49;99829.63;;;30.75;37.95
28079;BME280;15388;42.238;24.684;2023-09-18T11:39:40;99823.94;;;30.92;37.47
28079;BME280;15388;42.238;24.684;2023-09-18T11:42:13;99814.97;;;31.07;36.50
28079;BME280;15388;42.238;24.684;2023-09-18T11:44:41;99818.31;;;31.25;37.31
28079;BME280;15388;42.238;24.684;2023-09-18T11:47:19;99821.44;;;31.44;36.69
28079;BME280;15388;42.238;24.684;2023-09-18T11:49:54;99823.38;;;31.44;35.91
28079;BME280;15388;42.238;24.684;2023-09-18T11:52:24;99819.28;;;31.57;35.71
28079;BME280;15388;42.238;24.684;2023-09-18T11:54:50;99812.75;;;31.78;34.99
28079;BME280;15388;42.238;24.684;2023-09-18T11:57:17;99810.56;;;31.91;35.51
28079;BME280;15388;42.238;24.684;2023-09-18T11:59:43;99808.66;;;32.07;34.54
28079;BME280;15388;42.238;24.684;2023-09-18T12:02:25;99804.81;;;32.19;34.01
28079;BME280;15388;42.238;24.684;2023-09-18T12:04:53;99801.78;;;32.20;33.47
28079;BME280;15388;42.238;24.684;2023-09-18T12:07:19;99803.97;;;31.92;34.02
28079;BME280;15388;42.238;24.684;2023-09-18T12:09:44;99801.13;;;31.50;33.47
28079;BME280;15388;42.238;24.684;2023-09-18T12:12:11;99793.94;;;31.39;34.95
28079;BME280;15388;42.238;24.684;2023-09-18T12:14:39;99785.19;;;31.58;35.08
28079;BME280;15388;42.238;24.684;2023-09-18T12:17:07;99791.78;;;31.51;34.51
28079;BME280;15388;42.238;24.684;2023-09-18T12:19:33;99787.94;;;31.52;34.14
28079;BME280;15388;42.238;24.684;2023-09-18T12:22:00;99786.31;;;31.72;34.37
28079;BME280;15388;42.238;24.684;2023-09-18T12:24:27;99782.78;;;31.87;33.84
28079;BME280;15388;42.238;24.684;2023-09-18T12:26:54;99785.47;;;31.61;34.37
28079;BME280;15388;42.238;24.684;2023-09-18T12:29:19;99782.75;;;31.67;34.78
28079;BME280;15388;42.238;24.684;2023-09-18T12:31:46;99775.59;;;31.86;32.83
28079;BME280;15388;42.238;24.684;2023-09-18T12:34:19;99770.38;;;31.64;34.22
28079;BME280;15388;42.238;24.684;2023-09-18T12:36:49;99757.56;;;31.16;33.63
28079;BME280;15388;42.238;24.684;2023-09-18T12:39:15;99764.59;;;30.86;34.24
28079;BME280;15388;42.238;24.684;2023-09-18T12:41:42;99763.53;;;30.97;34.32
28079;BME280;15388;42.238;24.684;2023-09-18T12:44:08;99752.63;;;31.13;34.13
28079;BME280;15388;42.238;24.684;2023-09-18T12:46:35;99762.34;;;31.36;34.07
28079;BME280;15388;42.238;24.684;2023-09-18T12:49:34;99762.94;;;31.75;34.27
28079;BME280;15388;42.238;24.684;2023-09-18T12:52:01;99758.88;;;32.03;34.01
28079;BME280;15388;42.238;24.684;2023-09-18T12:54:41;99756.66;;;32.11;32.95